sensor_id;sensor_type;location;lat;lon;timestamp;P1;durP1;ratioP1;P2;durP2;ratioP2
57341;SDS011;43175;51.002;18.316;2023-01-13T06:16:38;11.50;;;3.50;;
57341;SDS011;43175;51.002;18.316;2023-01-13T06:19:03;11.70;;;3.70;;
57341;SDS011;43175;51.002;18.316;2023-01-13T06:21:33;9.90;;;3.70;;
57341;SDS011;43175;51.002;18.316;2023-01-13T06:23:59;10.40;;;3.90;;
57341;SDS011;43175;51.002;18.316;2023-01-13T06:26:24;10.30;;;3.80;;
57341;SDS011;43175;51.002;18.316;2023-01-13T06:28:52;10.30;;;3.50;;
57341;SDS011;43175;51.002;18.316;2023-01-13T06:31:17;11.60;;;3.70;;
57341;SDS011;43175;51.002;18.316;2023-01-13T06:33:49;9.80;;;3.40;;
57341;SDS011;43175;51.002;18.316;2023-01-13T06:36:37;11.70;;;3.70;;
57341;SDS011;43175;51.002;18.316;2023-01-13T06:39:06;9.90;;;3.80;;
57341;SDS011;43175;51.002;18.316;2023-01-13T06:41:33;10.60;;;3.60;;
57341;SDS011;43175;51.002;18.316;2023-01-13T06:44:17;9.50;;;3.20;;
57341;SDS011;43175;51.002;18.316;2023-01-13T06:46:44;9.80;;;3.30;;
57341;SDS011;43175;51.002;18.316;2023-01-13T06:49:10;9.30;;;3.10;;
57341;SDS011;43175;51.002;18.316;2023-01-13T06:51:35;9.30;;;3.10;;
57341;SDS011;43175;51.002;18.316;2023-01-13T06:54:01;11.30;;;3.30;;
57341;SDS011;43175;51.002;18.316;2023-01-13T06:56:26;10.80;;;3.40;;
57341;SDS011;43175;51.002;18.316;2023-01-13T06:58:52;10.90;;;3.40;;
57341;SDS011;43175;51.002;18.316;2023-01-13T07:01:17;11.20;;;3.40;;
57341;SDS011;43175;51.002;18.316;2023-01-13T07:03:43;10.70;;;3.40;;
57341;SDS011;43175;51.002;18.316;2023-01-13T07:06:08;10.30;;;3.50;;
57341;SDS011;43175;51.002;18.316;2023-01-13T07:08:34;11.30;;;3.50;;
57341;SDS011;43175;51.002;18.316;2023-01-13T07:11:02;11.10;;;3.60;;
57341;SDS011;43175;51.002;18.316;2023-01-13T07:13:28;9.70;;;3.10;;
57341;SDS011;43175;51.002;18.316;2023-01-13T07:16:12;10.90;;;3.50;;
57341;SDS011;43175;51.002;18.316;2023-01-13T07:18:38;11.90;;;3.50;;
57341;SDS011;43175;51.002;18.316;2023-01-13T07:21:04;10.60;;;3.30;;
57341;SDS011;43175;51.002;18.316;2023-01-13T07:23:33;10.20;;;3.50;;
57341;SDS011;43175;51.002;18.316;2023-01-13T07:26:00;10.30;;;3.90;;
57341;SDS011;43175;51.002;18.316;2023-01-13T07:28:26;10.80;;;3.90;;
57341;SDS011;43175;51.002;18.316;2023-01-13T07:30:53;11.50;;;3.60;;
57341;SDS011;43175;51.002;18.316;2023-01-13T07:33:19;11.20;;;4.10;;
57341;SDS011;43175;51.002;18.316;2023-01-13T07:35:45;9.70;;;3.20;;
57341;SDS011;43175;51.002;18.316;2023-01-13T07:38:11;10.20;;;3.60;;
57341;SDS011;43175;51.002;18.316;2023-01-13T07:40:38;9.80;;;3.20;;
57341;SDS011;43175;51.002;18.316;2023-01-13T07:43:04;10.50;;;3.70;;
57341;SDS011;43175;51.002;18.316;2023-01-13T07:45:49;10.90;;;3.60;;
57341;SDS011;43175;51.002;18.316;2023-01-13T07:48:20;11.70;;;4.70;;
57341;SDS011;43175;51.002;18.316;2023-01-13T07:50:45;11.00;;;3.20;;
57341;SDS011;43175;51.002;18.316;2023-01-13T07:53:10;10.10;;;3.10;;
57341;SDS011;43175;51.002;18.316;2023-01-13T07:55:39;10.10;;;3.50;;
57341;SDS011;43175;51.002;18.316;2023-01-13T07:58:09;12.20;;;3.20;;
57341;SDS011;43175;51.002;18.316;2023-01-13T08:00:35;9.70;;;3.20;;
57341;SDS011;43175;51.002;18.316;2023-01-13T08:03:01;8.70;;;2.90;;
57341;SDS011;43175;51.002;18.316;2023-01-13T08:05:27;9.90;;;3.20;;
57341;SDS011;43175;51.002;18.316;2023-01-13T08:07:53;8.50;;;2.90;;
57341;SDS011;43175;51.002;18.316;2023-01-13T08:10:18;11.00;;;3.60;;
57341;SDS011;43175;51.002;18.316;2023-01-13T08:12:43;10.20;;;3.10;;
57341;SDS011;43175;51.002;18.316;2023-01-13T08:15:48;11.70;;;3.30;;
57341;SDS011;43175;51.002;18.316;2023-01-13T08:18:16;8.70;;;3.00;;
57341;SDS011;43175;51.002;18.316;2023-01-13T08:20:44;10.30;;;3.30;;
57341;SDS011;43175;51.002;18.316;2023-01-13T08:23:10;10.30;;;3.20;;
57341;SDS011;43175;51.002;18.316;2023-01-13T08:25:36;8.90;;;2.90;;
57341;SDS011;43175;51.002;18.316;2023-01-13T08:28:01;9.90;;;3.00;;
57341;SDS011;43175;51.002;18.316;2023-01-13T08:30:27;11.30;;;4.30;;
57341;SDS011;43175;51.002;18.316;2023-01-13T08:32:53;10.00;;;3.40;;
57341;SDS011;43175;51.002;18.316;2023-01-13T08:35:19;9.10;;;3.10;;
57341;SDS011;43175;51.002;18.316;2023-01-13T08:37:46;13.90;;;7.50;;
57341;SDS011;43175;51.002;18.316;2023-01-13T08:40:12;11.10;;;4.70;;
57341;SDS011;43175;51.002;18.316;2023-01-13T08:42:38;9.50;;;3.60;;
57341;SDS011;43175;51.002;18.316;2023-01-13T08:45:05;9.40;;;2.90;;
57341;SDS011;43175;51.002;18.316;2023-01-13T08:47:31;9.40;;;3.30;;
57341;SDS011;43175;51.002;18.316;2023-01-13T08:49:56;9.80;;;3.60;;
57341;SDS011;43175;51.002;18.316;2023-01-13T08:52:22;11.30;;;4.30;;
57341;SDS011;43175;51.002;18.316;2023-01-13T08:54:48;11.80;;;3.30;;
57341;SDS011;43175;51.002;18.316;2023-01-13T08:57:13;11.20;;;3.10;;
57341;SDS011;43175;51.002;18.316;2023-01-13T08:59:39;9.00;;;3.10;;
57341;SDS011;43175;51.002;18.316;2023-01-13T09:02:11;10.70;;;3.00;;
57341;SDS011;43175;51.002;18.316;2023-01-13T09:04:37;10.20;;;3.00;;
57341;SDS011;43175;51.002;18.316;2023-01-13T09:07:03;8.90;;;2.70;;
57341;SDS011;43175;51.002;18.316;2023-01-13T09:09:29;8.90;;;3.10;;
57341;SDS011;43175;51.002;18.316;2023-01-13T09:11:54;11.70;;;4.50;;
57341;SDS011;43175;51.002;18.316;2023-01-13T09:14:39;10.80;;;3.20;;
57341;SDS011;43175;51.002;18.316;2023-01-13T09:17:05;8.90;;;3.10;;
57341;SDS011;43175;51.002;18.316;2023-01-13T09:19:32;12.10;;;3.90;;
57341;SDS011;43175;51.002;18.316;2023-01-13T09:21:58;10.40;;;3.40;;
57341;SDS011;43175;51.002;18.316;2023-01-13T09:24:24;12.00;;;3.40;;
57341;SDS011;43175;51.002;18.316;2023-01-13T09:26:49;10.90;;;3.20;;
57341;SDS011;43175;51.002;18.316;2023-01-13T09:29:15;9.90;;;3.10;;
57341;SDS011;43175;51.002;18.316;2023-01-13T09:31:41;11.00;;;3.80;;
57341;SDS011;43175;51.002;18.316;2023-01-13T09:34:09;9.90;;;3.60;;
57341;SDS011;43175;51.002;18.316;2023-01-13T09:36:57;10.60;;;3.40;;
57341;SDS011;43175;51.002;18.316;2023-01-13T09:39:22;10.20;;;3.30;;
57341;SDS011;43175;51.002;18.316;2023-01-13T09:41:52;9.50;;;3.10;;
57341;SDS011;43175;51.002;18.316;2023-01-13T09:47:24;10.70;;;3.50;;
57341;SDS011;43175;51.002;18.316;2023-01-13T09:49:52;10.00;;;3.50;;
57341;SDS011;43175;51.002;18.316;2023-01-13T09:52:20;12.40;;;4.50;;
57341;SDS011;43175;51.002;18.316;2023-01-13T09:54:52;11.20;;;4.60;;
57341;SDS011;43175;51.002;18.316;2023-01-13T09:57:23;10.60;;;4.00;;
57341;SDS011;43175;51.002;18.316;2023-01-13T09:59:49;9.50;;;3.20;;
57341;SDS011;43175;51.002;18.316;2023-01-13T10:07:31;13.80;;;7.60;;
57341;SDS011;43175;51.002;18.316;2023-01-13T10:09:59;13.00;;;5.40;;
57341;SDS011;43175;51.002;18.316;2023-01-13T10:12:25;11.10;;;3.70;;
57341;SDS011;43175;51.002;18.316;2023-01-13T10:15:13;15.80;;;6.80;;
57341;SDS011;43175;51.002;18.316;2023-01-13T10:17:46;11.50;;;4.30;;
57341;SDS011;43175;51.002;18.316;2023-01-13T10:25:43;10.60;;;3.80;;
57341;SDS011;43175;51.002;18.316;2023-01-13T10:28:30;9.70;;;3.40;;
57341;SDS011;43175;51.002;18.316;2023-01-13T10:30:55;12.40;;;4.40;;
57341;SDS011;43175;51.002;18.316;2023-01-13T10:33:22;12.10;;;3.90;;
57341;SDS011;43175;51.002;18.316;2023-01-13T10:35:59;8.90;;;3.60;;
57341;SDS011;43175;51.002;18.316;2023-01-13T10:41:02;10.30;;;3.70;;
57341;SDS011;43175;51.002;18.316;2023-01-13T10:43:30;8.60;;;3.10;;
57341;SDS011;43175;51.002;18.316;2023-01-13T10:46:00;10.30;;;2.90;;
57341;SDS011;43175;51.002;18.316;2023-01-13T10:48:33;10.70;;;3.50;;
57341;SDS011;43175;51.002;18.316;2023-01-13T10:51:22;11.40;;;3.70;;
57341;SDS011;43175;51.002;18.316;2023-01-13T10:54:01;11.60;;;4.90;;
57341;SDS011;43175;51.002;18.316;2023-01-13T10:56:47;11.40;;;3.70;;
57341;SDS011;43175;51.002;18.316;2023-01-13T10:59:22;11.80;;;4.20;;
57341;SDS011;43175;51.002;18.316;2023-01-13T11:01:54;11.20;;;4.40;;
57341;SDS011;43175;51.002;18.316;2023-01-13T11:07:23;12.80;;;5.30;;
57341;SDS011;43175;51.002;18.316;2023-01-13T11:10:03;13.30;;;5.30;;
57341;SDS011;43175;51.002;18.316;2023-01-13T11:12:34;13.10;;;4.60;;
57341;SDS011;43175;51.002;18.316;2023-01-13T11:15:08;12.80;;;3.60;;
57341;SDS011;43175;51.002;18.316;2023-01-13T11:17:40;12.40;;;5.20;;
57341;SDS011;43175;51.002;18.316;2023-01-13T11:22:54;15.60;;;7.20;;
57341;SDS011;43175;51.002;18.316;2023-01-13T11:25:28;13.00;;;4.80;;
57341;SDS011;43175;51.002;18.316;2023-01-13T11:28:04;13.20;;;4.30;;
57341;SDS011;43175;51.002;18.316;2023-01-13T11:33:45;11.60;;;3.30;;
57341;SDS011;43175;51.002;18.316;2023-01-13T11:36:16;11.70;;;4.10;;
57341;SDS011;43175;51.002;18.316;2023-01-13T11:38:44;11.50;;;4.20;;
57341;SDS011;43175;51.002;18.316;2023-01-13T11:41:37;10.40;;;3.70;;
57341;SDS011;43175;51.002;18.316;2023-01-13T11:46:56;11.40;;;4.20;;
57341;SDS011;43175;51.002;18.316;2023-01-13T11:49:26;11.10;;;4.20;;
57341;SDS011;43175;51.002;18.316;2023-01-13T11:54:31;13.00;;;6.60;;
57341;SDS011;43175;51.002;18.316;2023-01-13T12:03:23;12.10;;;6.00;;
57341;SDS011;43175;51.002;18.316;2023-01-13T12:05:58;13.30;;;6.00;;
57341;SDS011;43175;51.002;18.316;2023-01-13T12:11:20;15.60;;;7.50;;
57341;SDS011;43175;51.002;18.316;2023-01-13T12:16:29;10.00;;;4.00;;
57341;SDS011;43175;51.002;18.316;2023-01-13T12:24:34;12.60;;;5.90;;
57341;SDS011;43175;51.002;18.316;2023-01-13T12:29:52;15.30;;;8.60;;
57341;SDS011;43175;51.002;18.316;2023-01-13T12:32:30;13.40;;;7.30;;
57341;SDS011;43175;51.002;18.316;2023-01-13T12:45:25;13.30;;;4.50;;
57341;SDS011;43175;51.002;18.316;2023-01-13T12:47:52;14.20;;;7.20;;
57341;SDS011;43175;51.002;18.316;2023-01-13T12:52:54;13.80;;;7.10;;
57341;SDS011;43175;51.002;18.316;2023-01-13T12:57:59;15.30;;;7.30;;
57341;SDS011;43175;51.002;18.316;2023-01-13T13:11:38;22.70;;;10.90;;
57341;SDS011;43175;51.002;18.316;2023-01-13T13:19:57;12.00;;;5.10;;
57341;SDS011;43175;51.002;18.316;2023-01-13T13:30:12;11.50;;;4.30;;
57341;SDS011;43175;51.002;18.316;2023-01-13T13:35:37;14.00;;;5.10;;
57341;SDS011;43175;51.002;18.316;2023-01-13T13:41:27;12.40;;;4.80;;
57341;SDS011;43175;51.002;18.316;2023-01-13T13:44:14;13.30;;;5.00;;
57341;SDS011;43175;51.002;18.316;2023-01-13T13:47:02;12.00;;;4.20;;
57341;SDS011;43175;51.002;18.316;2023-01-13T13:49:37;12.50;;;4.50;;
57341;SDS011;43175;51.002;18.316;2023-01-13T13:52:13;11.60;;;4.00;;
57341;SDS011;43175;51.002;18.316;2023-01-13T13:54:44;10.90;;;4.00;;
57341;SDS011;43175;51.002;18.316;2023-01-13T13:59:47;12.90;;;5.10;;
57341;SDS011;43175;51.002;18.316;2023-01-13T14:02:18;13.70;;;4.90;;
57341;SDS011;43175;51.002;18.316;2023-01-13T14:04:48;11.60;;;4.20;;
57341;SDS011;43175;51.002;18.316;2023-01-13T14:07:14;14.80;;;5.50;;
57341;SDS011;43175;51.002;18.316;2023-01-13T14:09:49;14.50;;;6.90;;
57341;SDS011;43175;51.002;18.316;2023-01-13T14:12:21;13.20;;;4.90;;
57341;SDS011;43175;51.002;18.316;2023-01-13T14:14:49;15.40;;;5.30;;
57341;SDS011;43175;51.002;18.316;2023-01-13T14:17:21;13.30;;;5.00;;
57341;SDS011;43175;51.002;18.316;2023-01-13T14:19:54;12.30;;;4.50;;
57341;SDS011;43175;51.002;18.316;2023-01-13T14:22:23;13.40;;;4.20;;
57341;SDS011;43175;51.002;18.316;2023-01-13T14:24:49;10.80;;;4.10;;
57341;SDS011;43175;51.002;18.316;2023-01-13T14:27:20;11.40;;;3.90;;
57341;SDS011;43175;51.002;18.316;2023-01-13T14:29:46;11.10;;;4.00;;
57341;SDS011;43175;51.002;18.316;2023-01-13T14:32:14;10.80;;;4.20;;
57341;SDS011;43175;51.002;18.316;2023-01-13T14:34:43;11.80;;;3.80;;
57341;SDS011;43175;51.002;18.316;2023-01-13T14:37:20;11.20;;;4.00;;
57341;SDS011;43175;51.002;18.316;2023-01-13T14:39:49;10.60;;;4.10;;
57341;SDS011;43175;51.002;18.316;2023-01-13T14:42:15;10.50;;;3.80;;
57341;SDS011;43175;51.002;18.316;2023-01-13T14:44:44;12.00;;;4.00;;
57341;SDS011;43175;51.002;18.316;2023-01-13T14:47:27;11.40;;;4.20;;
57341;SDS011;43175;51.002;18.316;2023-01-13T14:52:36;12.30;;;4.80;;
57341;SDS011;43175;51.002;18.316;2023-01-13T14:55:20;12.50;;;5.00;;
57341;SDS011;43175;51.002;18.316;2023-01-13T14:57:52;13.60;;;4.90;;
57341;SDS011;43175;51.002;18.316;2023-01-13T15:07:53;14.40;;;5.60;;
57341;SDS011;43175;51.002;18.316;2023-01-13T15:10:24;12.80;;;4.90;;
57341;SDS011;43175;51.002;18.316;2023-01-13T15:12:52;12.00;;;5.00;;
57341;SDS011;43175;51.002;18.316;2023-01-13T15:15:23;13.30;;;4.60;;
57341;SDS011;43175;51.002;18.316;2023-01-13T15:18:12;12.20;;;5.00;;
57341;SDS011;43175;51.002;18.316;2023-01-13T15:20:39;11.80;;;4.70;;
57341;SDS011;43175;51.002;18.316;2023-01-13T15:23:05;13.00;;;4.40;;
57341;SDS011;43175;51.002;18.316;2023-01-13T15:25:32;12.40;;;4.90;;
57341;SDS011;43175;51.002;18.316;2023-01-13T15:27:58;12.30;;;4.80;;
57341;SDS011;43175;51.002;18.316;2023-01-13T15:30:25;12.50;;;4.80;;
57341;SDS011;43175;51.002;18.316;2023-01-13T15:32:53;12.80;;;5.20;;
57341;SDS011;43175;51.002;18.316;2023-01-13T15:35:20;12.60;;;4.90;;
57341;SDS011;43175;51.002;18.316;2023-01-13T15:37:47;11.60;;;4.70;;
57341;SDS011;43175;51.002;18.316;2023-01-13T15:40:15;12.10;;;5.10;;
57341;SDS011;43175;51.002;18.316;2023-01-13T15:42:43;13.70;;;5.20;;
57341;SDS011;43175;51.002;18.316;2023-01-13T15:45:27;12.70;;;5.10;;
57341;SDS011;43175;51.002;18.316;2023-01-13T15:48:11;12.20;;;4.90;;
57341;SDS011;43175;51.002;18.316;2023-01-13T15:50:37;33.70;;;15.80;;
57341;SDS011;43175;51.002;18.316;2023-01-13T15:53:04;15.40;;;7.00;;
57341;SDS011;43175;51.002;18.316;2023-01-13T15:55:31;15.60;;;6.20;;
57341;SDS011;43175;51.002;18.316;2023-01-13T15:57:57;13.80;;;5.10;;
57341;SDS011;43175;51.002;18.316;2023-01-13T16:00:22;12.30;;;4.80;;
57341;SDS011;43175;51.002;18.316;2023-01-13T16:02:49;12.40;;;5.30;;
57341;SDS011;43175;51.002;18.316;2023-01-13T16:05:15;13.50;;;5.30;;
57341;SDS011;43175;51.002;18.316;2023-01-13T16:07:40;12.00;;;4.90;;
57341;SDS011;43175;51.002;18.316;2023-01-13T16:10:16;11.90;;;4.90;;
57341;SDS011;43175;51.002;18.316;2023-01-13T16:12:44;12.00;;;5.10;;
57341;SDS011;43175;51.002;18.316;2023-01-13T16:15:16;12.70;;;5.40;;
57341;SDS011;43175;51.002;18.316;2023-01-13T16:17:43;13.40;;;5.50;;
57341;SDS011;43175;51.002;18.316;2023-01-13T16:20:13;13.20;;;5.70;;
57341;SDS011;43175;51.002;18.316;2023-01-13T16:22:40;14.10;;;6.20;;
57341;SDS011;43175;51.002;18.316;2023-01-13T16:25:05;13.90;;;5.80;;
57341;SDS011;43175;51.002;18.316;2023-01-13T16:27:31;14.00;;;5.80;;
57341;SDS011;43175;51.002;18.316;2023-01-13T16:29:57;13.80;;;5.80;;
57341;SDS011;43175;51.002;18.316;2023-01-13T16:32:22;14.90;;;5.50;;
57341;SDS011;43175;51.002;18.316;2023-01-13T16:34:48;15.40;;;5.70;;
57341;SDS011;43175;51.002;18.316;2023-01-13T16:39:49;16.70;;;6.70;;
57341;SDS011;43175;51.002;18.316;2023-01-13T16:42:15;15.90;;;6.60;;
57341;SDS011;43175;51.002;18.316;2023-01-13T16:44:40;16.20;;;6.70;;
57341;SDS011;43175;51.002;18.316;2023-01-13T16:47:10;13.10;;;5.40;;
57341;SDS011;43175;51.002;18.316;2023-01-13T16:52:03;17.20;;;6.80;;
57341;SDS011;43175;51.002;18.316;2023-01-13T16:54:29;14.30;;;5.70;;
57341;SDS011;43175;51.002;18.316;2023-01-13T16:56:54;13.30;;;5.70;;
57341;SDS011;43175;51.002;18.316;2023-01-13T16:59:20;14.00;;;5.90;;
57341;SDS011;43175;51.002;18.316;2023-01-13T17:01:46;13.70;;;6.10;;
57341;SDS011;43175;51.002;18.316;2023-01-13T17:04:15;13.90;;;6.20;;
57341;SDS011;43175;51.002;18.316;2023-01-13T17:06:53;15.20;;;6.80;;
57341;SDS011;43175;51.002;18.316;2023-01-13T17:09:22;14.70;;;6.60;;
57341;SDS011;43175;51.002;18.316;2023-01-13T17:11:49;20.40;;;8.60;;
57341;SDS011;43175;51.002;18.316;2023-01-13T17:14:15;17.90;;;8.40;;
57341;SDS011;43175;51.002;18.316;2023-01-13T17:16:43;20.40;;;12.30;;
57341;SDS011;43175;51.002;18.316;2023-01-13T17:19:09;16.40;;;8.00;;
57341;SDS011;43175;51.002;18.316;2023-01-13T17:21:35;17.30;;;10.40;;
57341;SDS011;43175;51.002;18.316;2023-01-13T17:24:01;15.60;;;7.30;;
57341;SDS011;43175;51.002;18.316;2023-01-13T17:26:30;17.70;;;7.70;;
57341;SDS011;43175;51.002;18.316;2023-01-13T17:28:57;16.40;;;7.90;;
57341;SDS011;43175;51.002;18.316;2023-01-13T17:31:24;15.80;;;8.10;;
57341;SDS011;43175;51.002;18.316;2023-01-13T17:33:49;16.70;;;8.80;;
57341;SDS011;43175;51.002;18.316;2023-01-13T17:36:14;19.10;;;9.00;;
57341;SDS011;43175;51.002;18.316;2023-01-13T17:38:40;17.50;;;9.00;;
57341;SDS011;43175;51.002;18.316;2023-01-13T17:41:05;19.10;;;10.00;;
57341;SDS011;43175;51.002;18.316;2023-01-13T17:43:31;19.80;;;9.60;;
57341;SDS011;43175;51.002;18.316;2023-01-13T17:45:56;21.70;;;11.60;;
57341;SDS011;43175;51.002;18.316;2023-01-13T17:48:22;22.70;;;13.10;;
57341;SDS011;43175;51.002;18.316;2023-01-13T17:50:48;22.70;;;12.60;;
57341;SDS011;43175;51.002;18.316;2023-01-13T17:53:18;24.50;;;12.80;;
57341;SDS011;43175;51.002;18.316;2023-01-13T17:55:51;23.70;;;13.50;;
57341;SDS011;43175;51.002;18.316;2023-01-13T17:58:18;22.40;;;12.60;;
57341;SDS011;43175;51.002;18.316;2023-01-13T18:00:44;22.70;;;12.90;;
57341;SDS011;43175;51.002;18.316;2023-01-13T18:03:11;21.30;;;11.50;;
57341;SDS011;43175;51.002;18.316;2023-01-13T18:05:37;22.90;;;12.10;;
57341;SDS011;43175;51.002;18.316;2023-01-13T18:08:03;22.60;;;12.20;;
57341;SDS011;43175;51.002;18.316;2023-01-13T18:10:29;20.10;;;10.50;;
57341;SDS011;43175;51.002;18.316;2023-01-13T18:12:54;20.20;;;12.00;;
57341;SDS011;43175;51.002;18.316;2023-01-13T18:15:20;21.00;;;12.60;;
57341;SDS011;43175;51.002;18.316;2023-01-13T18:17:46;21.10;;;12.00;;
57341;SDS011;43175;51.002;18.316;2023-01-13T18:20:13;21.50;;;11.60;;
57341;SDS011;43175;51.002;18.316;2023-01-13T18:22:58;25.80;;;13.80;;
57341;SDS011;43175;51.002;18.316;2023-01-13T18:25:42;21.50;;;12.20;;
57341;SDS011;43175;51.002;18.316;2023-01-13T18:28:26;19.30;;;10.40;;
57341;SDS011;43175;51.002;18.316;2023-01-13T18:30:52;20.80;;;11.70;;
57341;SDS011;43175;51.002;18.316;2023-01-13T18:33:17;19.10;;;10.70;;
57341;SDS011;43175;51.002;18.316;2023-01-13T18:35:42;24.60;;;14.50;;
57341;SDS011;43175;51.002;18.316;2023-01-13T18:38:08;26.40;;;15.70;;
57341;SDS011;43175;51.002;18.316;2023-01-13T18:40:36;29.20;;;17.00;;
57341;SDS011;43175;51.002;18.316;2023-01-13T18:43:02;27.20;;;15.60;;
57341;SDS011;43175;51.002;18.316;2023-01-13T18:45:28;25.00;;;14.90;;
57341;SDS011;43175;51.002;18.316;2023-01-13T18:47:56;25.30;;;16.50;;
57341;SDS011;43175;51.002;18.316;2023-01-13T18:50:23;29.60;;;20.60;;
57341;SDS011;43175;51.002;18.316;2023-01-13T18:52:49;26.20;;;16.60;;
57341;SDS011;43175;51.002;18.316;2023-01-13T18:55:14;28.00;;;17.80;;
57341;SDS011;43175;51.002;18.316;2023-01-13T18:57:40;20.80;;;14.20;;
57341;SDS011;43175;51.002;18.316;2023-01-13T19:00:07;22.40;;;13.20;;
57341;SDS011;43175;51.002;18.316;2023-01-13T19:02:34;20.00;;;12.00;;
57341;SDS011;43175;51.002;18.316;2023-01-13T19:05:00;22.70;;;12.80;;
57341;SDS011;43175;51.002;18.316;2023-01-13T19:07:25;19.00;;;10.80;;
57341;SDS011;43175;51.002;18.316;2023-01-13T19:09:53;18.70;;;10.50;;
57341;SDS011;43175;51.002;18.316;2023-01-13T19:12:25;18.80;;;10.70;;
57341;SDS011;43175;51.002;18.316;2023-01-13T19:14:58;20.40;;;11.50;;
57341;SDS011;43175;51.002;18.316;2023-01-13T19:17:25;19.80;;;11.10;;
57341;SDS011;43175;51.002;18.316;2023-01-13T19:19:54;21.00;;;11.40;;
57341;SDS011;43175;51.002;18.316;2023-01-13T19:22:21;19.60;;;10.20;;
57341;SDS011;43175;51.002;18.316;2023-01-13T19:24:50;18.10;;;9.70;;
57341;SDS011;43175;51.002;18.316;2023-01-13T19:27:16;18.20;;;9.20;;
57341;SDS011;43175;51.002;18.316;2023-01-13T19:29:43;19.90;;;10.10;;
57341;SDS011;43175;51.002;18.316;2023-01-13T19:32:09;17.30;;;9.20;;
57341;SDS011;43175;51.002;18.316;2023-01-13T19:34:35;17.40;;;9.50;;
57341;SDS011;43175;51.002;18.316;2023-01-13T19:37:01;18.20;;;9.30;;
57341;SDS011;43175;51.002;18.316;2023-01-13T19:39:28;16.80;;;9.40;;
57341;SDS011;43175;51.002;18.316;2023-01-13T19:41:54;17.60;;;9.30;;
57341;SDS011;43175;51.002;18.316;2023-01-13T19:44:39;17.90;;;9.10;;
57341;SDS011;43175;51.002;18.316;2023-01-13T19:47:24;19.20;;;10.20;;
57341;SDS011;43175;51.002;18.316;2023-01-13T19:49:49;17.70;;;9.30;;
57341;SDS011;43175;51.002;18.316;2023-01-13T19:52:14;15.40;;;8.70;;
57341;SDS011;43175;51.002;18.316;2023-01-13T19:54:40;16.10;;;8.10;;
57341;SDS011;43175;51.002;18.316;2023-01-13T19:57:08;14.10;;;6.60;;
57341;SDS011;43175;51.002;18.316;2023-01-13T19:59:34;14.50;;;6.80;;
57341;SDS011;43175;51.002;18.316;2023-01-13T20:02:04;14.90;;;6.90;;
57341;SDS011;43175;51.002;18.316;2023-01-13T20:04:34;16.60;;;7.60;;
57341;SDS011;43175;51.002;18.316;2023-01-13T20:07:05;14.30;;;7.20;;
57341;SDS011;43175;51.002;18.316;2023-01-13T20:09:32;15.60;;;8.50;;
57341;SDS011;43175;51.002;18.316;2023-01-13T20:11:58;14.60;;;6.30;;
57341;SDS011;43175;51.002;18.316;2023-01-13T20:14:40;14.90;;;7.30;;
57341;SDS011;43175;51.002;18.316;2023-01-13T20:17:07;12.80;;;5.70;;
57341;SDS011;43175;51.002;18.316;2023-01-13T20:19:33;15.50;;;7.60;;
57341;SDS011;43175;51.002;18.316;2023-01-13T20:21:59;18.40;;;9.60;;
57341;SDS011;43175;51.002;18.316;2023-01-13T20:24:24;19.20;;;10.30;;
57341;SDS011;43175;51.002;18.316;2023-01-13T20:26:50;17.80;;;9.80;;
57341;SDS011;43175;51.002;18.316;2023-01-13T20:29:18;16.80;;;7.90;;
57341;SDS011;43175;51.002;18.316;2023-01-13T20:31:44;17.80;;;8.70;;
57341;SDS011;43175;51.002;18.316;2023-01-13T20:34:10;15.10;;;7.40;;
57341;SDS011;43175;51.002;18.316;2023-01-13T20:36:37;15.90;;;7.60;;
57341;SDS011;43175;51.002;18.316;2023-01-13T20:39:05;15.00;;;6.60;;
57341;SDS011;43175;51.002;18.316;2023-01-13T20:41:32;14.80;;;5.60;;
57341;SDS011;43175;51.002;18.316;2023-01-13T20:44:17;12.80;;;6.00;;
57341;SDS011;43175;51.002;18.316;2023-01-13T20:46:42;21.80;;;10.90;;
57341;SDS011;43175;51.002;18.316;2023-01-13T20:49:09;23.30;;;11.70;;
57341;SDS011;43175;51.002;18.316;2023-01-13T20:51:35;27.80;;;15.00;;
57341;SDS011;43175;51.002;18.316;2023-01-13T20:54:01;23.00;;;12.80;;
57341;SDS011;43175;51.002;18.316;2023-01-13T20:56:28;15.90;;;7.90;;
57341;SDS011;43175;51.002;18.316;2023-01-13T20:58:53;13.10;;;6.70;;
57341;SDS011;43175;51.002;18.316;2023-01-13T21:01:19;14.00;;;5.90;;
57341;SDS011;43175;51.002;18.316;2023-01-13T21:03:44;12.90;;;6.10;;
57341;SDS011;43175;51.002;18.316;2023-01-13T21:06:10;11.60;;;4.60;;
57341;SDS011;43175;51.002;18.316;2023-01-13T21:08:36;12.90;;;5.50;;
57341;SDS011;43175;51.002;18.316;2023-01-13T21:11:02;11.60;;;4.90;;
57341;SDS011;43175;51.002;18.316;2023-01-13T21:13:30;11.90;;;4.30;;
57341;SDS011;43175;51.002;18.316;2023-01-13T21:16:17;12.30;;;4.50;;
57341;SDS011;43175;51.002;18.316;2023-01-13T21:18:43;13.10;;;5.10;;
57341;SDS011;43175;51.002;18.316;2023-01-13T21:21:27;11.40;;;4.60;;
57341;SDS011;43175;51.002;18.316;2023-01-13T21:23:53;12.90;;;4.90;;
57341;SDS011;43175;51.002;18.316;2023-01-13T21:26:19;12.30;;;4.60;;
57341;SDS011;43175;51.002;18.316;2023-01-13T21:28:46;12.10;;;4.40;;
57341;SDS011;43175;51.002;18.316;2023-01-13T21:31:12;11.40;;;4.40;;
57341;SDS011;43175;51.002;18.316;2023-01-13T21:33:38;10.80;;;4.00;;
57341;SDS011;43175;51.002;18.316;2023-01-13T21:38:30;11.40;;;4.30;;
57341;SDS011;43175;51.002;18.316;2023-01-13T21:40:57;10.90;;;4.10;;
57341;SDS011;43175;51.002;18.316;2023-01-13T21:43:27;11.40;;;4.10;;
57341;SDS011;43175;51.002;18.316;2023-01-13T21:46:14;12.30;;;4.60;;
57341;SDS011;43175;51.002;18.316;2023-01-13T21:48:59;11.10;;;4.40;;
57341;SDS011;43175;51.002;18.316;2023-01-13T21:51:25;12.40;;;4.40;;
57341;SDS011;43175;51.002;18.316;2023-01-13T21:53:51;12.50;;;4.70;;
57341;SDS011;43175;51.002;18.316;2023-01-13T21:56:17;11.80;;;4.40;;
57341;SDS011;43175;51.002;18.316;2023-01-13T21:58:42;11.20;;;4.40;;
57341;SDS011;43175;51.002;18.316;2023-01-13T22:01:07;12.40;;;4.70;;
57341;SDS011;43175;51.002;18.316;2023-01-13T22:03:34;14.00;;;6.10;;
57341;SDS011;43175;51.002;18.316;2023-01-13T22:06:22;12.30;;;5.90;;
57341;SDS011;43175;51.002;18.316;2023-01-13T22:08:48;13.60;;;7.00;;
57341;SDS011;43175;51.002;18.316;2023-01-13T22:11:13;16.90;;;9.40;;
57341;SDS011;43175;51.002;18.316;2023-01-13T22:13:39;13.00;;;5.60;;
57341;SDS011;43175;51.002;18.316;2023-01-13T22:16:23;12.40;;;5.00;;
57341;SDS011;43175;51.002;18.316;2023-01-13T22:18:49;12.00;;;4.90;;
